createdAt,value
2023-10-05T00:01:13.657Z,11.22
2023-10-05T00:06:15.500Z,11.25
2023-10-05T00:11:29.995Z,11.20
2023-10-05T00:16:40.137Z,10.92
2023-10-05T00:21:48.467Z,10.80
2023-10-05T00:26:50.342Z,10.89
2023-10-05T00:31:51.678Z,10.85
2023-10-05T00:36:57.126Z,10.80
2023-10-05T00:42:04.693Z,10.39
2023-10-05T00:47:07.407Z,10.22
2023-10-05T00:52:16.294Z,10.45
2023-10-05T00:57:20.901Z,10.83
2023-10-05T01:02:23.151Z,10.87
2023-10-05T01:07:24.632Z,10.34
2023-10-05T01:12:44.515Z,10.48
2023-10-05T01:17:45.841Z,10.71
2023-10-05T01:22:47.111Z,10.56
2023-10-05T01:27:48.634Z,10.56
2023-10-05T01:32:50.914Z,10.50
2023-10-05T01:37:53.399Z,10.65
2023-10-05T01:42:55.289Z,10.13
2023-10-05T01:47:56.568Z,10.19
2023-10-05T01:53:08.379Z,10.25
2023-10-05T01:58:10.378Z,10.34
2023-10-05T02:03:15.165Z,10.15
2023-10-05T02:08:16.508Z,9.92
2023-10-05T02:13:17.947Z,10.19
2023-10-05T02:18:23.623Z,10.43
2023-10-05T02:23:30.193Z,10.32
2023-10-05T02:28:34.842Z,9.97
2023-10-05T02:33:39.083Z,9.90
2023-10-05T02:38:40.804Z,9.98
2023-10-05T02:43:42.073Z,9.56
2023-10-05T02:48:44.312Z,9.65
2023-10-05T02:53:46.770Z,9.48
2023-10-05T02:58:48.742Z,9.48
2023-10-05T03:03:52.489Z,9.61
2023-10-05T03:08:57.861Z,9.73
2023-10-05T03:13:59.842Z,9.74
2023-10-05T03:19:01.621Z,9.69
2023-10-05T03:24:03.512Z,9.59
2023-10-05T03:29:04.986Z,9.38
2023-10-05T03:34:08.490Z,9.60
2023-10-05T03:39:09.859Z,9.49
2023-10-05T03:44:16.874Z,9.73
2023-10-05T03:49:22.705Z,9.63
2023-10-05T03:54:27.295Z,9.67
2023-10-05T03:59:28.615Z,9.56
2023-10-05T04:04:35.896Z,9.32
2023-10-05T04:09:37.347Z,9.22
2023-10-05T04:14:39.271Z,9.59
2023-10-05T04:19:42.969Z,9.45
2023-10-05T04:24:45.729Z,9.40
2023-10-05T04:29:47.417Z,9.36
2023-10-05T04:34:48.650Z,9.48
2023-10-05T04:39:49.937Z,9.49
2023-10-05T04:44:53.677Z,9.39
2023-10-05T04:49:54.911Z,9.39
2023-10-05T04:54:59.318Z,9.70
2023-10-05T05:00:20.571Z,9.61
2023-10-05T05:05:41.627Z,9.39
2023-10-05T05:10:43.868Z,9.46
2023-10-05T05:15:45.251Z,9.59
2023-10-05T05:20:46.867Z,9.50
2023-10-05T05:25:49.966Z,9.64
2023-10-05T05:30:53.819Z,9.44
2023-10-05T05:35:55.619Z,9.57
2023-10-05T05:40:56.822Z,9.67
2023-10-05T05:45:59.756Z,9.54
2023-10-05T05:51:06.301Z,9.55
2023-10-05T05:56:07.646Z,9.53
2023-10-05T06:01:09.286Z,9.46
2023-10-05T06:06:10.533Z,9.39
2023-10-05T06:11:13.746Z,9.55
2023-10-05T06:16:15.628Z,9.58
2023-10-05T06:21:17.264Z,9.66
2023-10-05T06:26:18.516Z,9.68
2023-10-05T06:31:19.825Z,9.73
2023-10-05T06:36:26.581Z,9.85
2023-10-05T06:41:28.163Z,9.63
2023-10-05T06:46:29.707Z,9.86
2023-10-05T06:51:31.968Z,9.55
2023-10-05T06:56:33.229Z,9.67
2023-10-05T07:01:36.098Z,9.90
2023-10-05T07:06:37.470Z,10.27
2023-10-05T07:11:39.230Z,10.52
2023-10-05T07:16:40.448Z,10.73
2023-10-05T07:21:41.683Z,10.77
2023-10-05T07:26:43.026Z,11.04
2023-10-05T07:31:44.309Z,11.21
2023-10-05T07:36:45.940Z,11.43
2023-10-05T07:41:48.340Z,11.81
2023-10-05T07:46:49.611Z,11.77
2023-10-05T07:51:51.979Z,12.04
2023-10-05T08:01:56.383Z,12.07
2023-10-05T08:06:59.071Z,12.53
2023-10-05T08:12:00.364Z,13.14
2023-10-05T08:17:01.674Z,13.54
2023-10-05T08:22:03.354Z,13.13
2023-10-05T08:27:04.663Z,13.17
2023-10-05T08:32:07.394Z,13.64
2023-10-05T08:37:10.092Z,13.71
2023-10-05T08:42:12.853Z,14.12
2023-10-05T08:47:14.436Z,13.79
2023-10-05T08:52:15.758Z,14.19
2023-10-05T08:57:18.181Z,14.32
2023-10-05T09:02:22.832Z,14.75
2023-10-05T09:07:24.632Z,14.89
2023-10-05T09:12:48.613Z,15.18
2023-10-05T09:17:53.063Z,15.82
2023-10-05T09:22:57.559Z,15.73
2023-10-05T09:28:00.119Z,16.43
2023-10-05T09:33:01.499Z,16.70
2023-10-05T09:38:03.162Z,16.90
2023-10-05T09:43:06.818Z,17.51
2023-10-05T09:48:08.480Z,17.60
2023-10-05T09:53:12.754Z,17.76
2023-10-05T09:58:14.164Z,17.80
2023-10-05T10:03:18.809Z,18.12
2023-10-05T10:08:24.374Z,17.87
2023-10-05T10:13:26.433Z,17.50
2023-10-05T10:18:47.955Z,17.08
2023-10-05T10:23:51.077Z,17.20
2023-10-05T10:29:07.916Z,17.20
2023-10-05T10:34:10.688Z,17.11
2023-10-05T10:39:24.574Z,17.33
2023-10-05T10:44:26.151Z,17.25
2023-10-05T10:49:27.594Z,17.39
2023-10-05T10:54:30.086Z,17.48
2023-10-05T10:59:35.980Z,17.91
2023-10-05T11:04:50.286Z,18.62
2023-10-05T11:09:56.031Z,18.34
2023-10-05T11:14:57.988Z,19.16
2023-10-05T11:20:12.542Z,19.43
2023-10-05T11:25:17.136Z,19.47
2023-10-05T11:30:25.916Z,19.10
2023-10-05T11:35:43.664Z,18.40
2023-10-05T11:40:51.300Z,18.58
2023-10-05T11:45:52.570Z,18.71
2023-10-05T11:50:56.865Z,18.89
2023-10-05T11:55:59.548Z,18.76
2023-10-05T12:01:04.406Z,18.64
2023-10-05T12:06:09.768Z,18.76
2023-10-05T12:11:11.731Z,18.34
2023-10-05T12:16:13.169Z,18.43
2023-10-05T12:21:14.537Z,18.24
2023-10-05T12:26:16.360Z,18.10
2023-10-05T12:31:19.438Z,17.94
2023-10-05T12:36:20.768Z,18.32
2023-10-05T12:41:22.019Z,18.25
2023-10-05T12:46:29.821Z,18.43
2023-10-05T12:51:31.224Z,18.37
2023-10-05T12:56:32.445Z,18.22
2023-10-05T13:01:34.834Z,18.01
2023-10-05T13:06:36.240Z,18.01
2023-10-05T13:11:40.255Z,18.12
2023-10-05T13:16:41.598Z,18.19
2023-10-05T13:21:46.149Z,17.77
2023-10-05T13:26:47.741Z,17.66
2023-10-05T13:31:49.047Z,17.75
2023-10-05T13:36:53.532Z,17.61
2023-10-05T13:42:01.684Z,17.71
2023-10-05T13:47:04.026Z,17.52
2023-10-05T13:52:07.931Z,17.32
2023-10-05T13:57:12.304Z,17.42
2023-10-05T14:02:14.557Z,17.24
2023-10-05T14:07:15.940Z,17.37
2023-10-05T14:12:18.958Z,17.36
2023-10-05T14:17:20.677Z,17.16
2023-10-05T14:22:23.490Z,16.72
2023-10-05T14:27:31.663Z,16.79
2023-10-05T14:32:43.622Z,16.66
2023-10-05T14:37:44.980Z,16.73
2023-10-05T14:42:46.257Z,16.95
2023-10-05T14:47:47.638Z,16.79
2023-10-05T14:52:50.381Z,16.98
2023-10-05T14:57:52.488Z,16.83
2023-10-05T15:02:54.268Z,16.66
2023-10-05T15:07:59.927Z,16.88
2023-10-05T15:13:01.166Z,16.71
2023-10-05T15:18:02.817Z,17.12
2023-10-05T15:23:04.098Z,17.03
2023-10-05T15:28:06.315Z,16.97
2023-10-05T15:33:08.830Z,16.68
2023-10-05T15:38:10.311Z,16.82
2023-10-05T15:43:11.542Z,17.46
2023-10-05T15:48:14.553Z,16.76
2023-10-05T15:53:17.264Z,16.47
2023-10-05T15:58:18.553Z,16.14
2023-10-05T16:03:19.924Z,16.38
2023-10-05T16:08:21.214Z,16.74
2023-10-05T16:13:22.502Z,16.98
2023-10-05T16:18:25.108Z,17.26
2023-10-05T16:23:26.366Z,17.27
2023-10-05T16:28:28.563Z,17.15
2023-10-05T16:33:31.775Z,16.94
2023-10-05T16:38:33.009Z,17.16
2023-10-05T16:43:34.245Z,16.79
2023-10-05T16:48:36.884Z,16.97
2023-10-05T16:53:38.335Z,16.85
2023-10-05T16:58:39.677Z,16.69
2023-10-05T17:03:41.246Z,16.36
2023-10-05T17:08:42.663Z,15.80
2023-10-05T17:13:43.970Z,16.27
2023-10-05T17:18:45.261Z,15.65
2023-10-05T17:23:46.502Z,16.00
2023-10-05T17:28:47.757Z,15.72
2023-10-05T17:33:49.044Z,15.78
2023-10-05T17:38:50.352Z,15.97
2023-10-05T17:43:51.590Z,16.07
2023-10-05T17:48:52.905Z,16.24
2023-10-05T17:53:54.174Z,15.86
2023-10-05T17:58:55.443Z,16.08
2023-10-05T18:03:56.657Z,16.25
2023-10-05T18:09:01.727Z,16.08
2023-10-05T18:14:02.995Z,15.84
2023-10-05T18:19:04.651Z,15.73
2023-10-05T18:24:13.241Z,15.98
2023-10-05T18:29:14.590Z,15.69
2023-10-05T18:34:15.810Z,15.80
2023-10-05T18:39:17.748Z,15.92
2023-10-05T18:44:19.148Z,15.87
2023-10-05T18:49:22.437Z,15.83
2023-10-05T18:54:23.721Z,15.92
2023-10-05T18:59:25.748Z,15.73
2023-10-05T19:04:28.154Z,15.82
2023-10-05T19:09:29.508Z,15.71
2023-10-05T19:14:30.837Z,15.68
2023-10-05T19:19:32.077Z,15.64
2023-10-05T19:24:33.502Z,15.52
2023-10-05T19:29:34.719Z,15.63
2023-10-05T19:34:35.940Z,15.53
2023-10-05T19:39:37.158Z,15.32
2023-10-05T19:44:38.432Z,15.02
2023-10-05T19:49:43.133Z,15.04
2023-10-05T19:54:44.470Z,14.87
2023-10-05T19:59:46.535Z,14.46
2023-10-05T20:04:50.427Z,14.26
2023-10-05T20:09:55.014Z,14.23
2023-10-05T20:14:58.424Z,14.40
2023-10-05T20:19:59.797Z,14.49
2023-10-05T20:25:01.105Z,14.28
2023-10-05T20:30:02.326Z,14.12
2023-10-05T20:35:03.719Z,14.02
2023-10-05T20:40:05.090Z,14.00
2023-10-05T20:45:07.906Z,13.77
2023-10-05T20:50:09.593Z,13.17
2023-10-05T20:55:10.835Z,13.37
2023-10-05T21:00:13.778Z,13.66
2023-10-05T21:05:15.643Z,13.11
2023-10-05T21:10:16.995Z,13.01
2023-10-05T21:15:18.870Z,13.32
2023-10-05T21:20:22.067Z,13.27
2023-10-05T21:25:23.374Z,13.11
2023-10-05T21:30:24.633Z,12.93
2023-10-05T21:35:25.874Z,12.69
2023-10-05T21:40:27.212Z,12.76
2023-10-05T21:45:28.587Z,12.77
2023-10-05T21:50:29.912Z,12.72
2023-10-05T21:55:31.149Z,12.82
2023-10-05T22:00:41.614Z,12.64
2023-10-05T22:05:42.929Z,12.78
2023-10-05T22:10:44.727Z,12.76
2023-10-05T22:15:46.260Z,12.29
2023-10-05T22:20:47.574Z,12.60
2023-10-05T22:25:48.806Z,12.42
2023-10-05T22:30:50.092Z,12.47
2023-10-05T22:35:51.278Z,12.61
2023-10-05T22:40:53.797Z,12.22
2023-10-05T22:45:55.118Z,12.36
2023-10-05T22:51:00.058Z,12.32
2023-10-05T22:56:01.272Z,12.30
2023-10-05T23:01:03.717Z,12.20
2023-10-05T23:06:04.934Z,12.10
2023-10-05T23:11:09.264Z,12.33
2023-10-05T23:16:10.555Z,12.51
2023-10-05T23:21:11.772Z,12.31
2023-10-05T23:26:16.149Z,11.99
2023-10-05T23:31:17.714Z,12.23
2023-10-05T23:36:19.166Z,12.20
2023-10-05T23:41:22.565Z,12.00
2023-10-05T23:46:23.884Z,11.89
2023-10-05T23:51:25.086Z,12.01
2023-10-05T23:56:26.330Z,11.82
